createdAt,value
2017-10-11T00:00:06.187Z,13.80
2017-10-11T00:02:34.272Z,13.90
2017-10-11T00:05:02.344Z,13.80
2017-10-11T00:07:30.447Z,13.90
2017-10-11T00:09:58.528Z,13.90
2017-10-11T00:12:26.606Z,13.90
2017-10-11T00:14:56.234Z,13.80
2017-10-11T00:17:25.140Z,13.80
2017-10-11T00:19:53.258Z,13.80
2017-10-11T00:22:22.121Z,13.90
2017-10-11T00:24:50.980Z,13.90
2017-10-11T00:27:19.744Z,13.80
2017-10-11T00:29:47.873Z,13.80
2017-10-11T00:32:15.977Z,13.80
2017-10-11T00:34:44.066Z,13.70
2017-10-11T00:37:12.153Z,13.80
2017-10-11T00:39:41.009Z,13.80
2017-10-11T00:42:09.157Z,13.80
2017-10-11T00:44:38.011Z,13.80
2017-10-11T00:47:06.897Z,13.70
2017-10-11T00:49:34.999Z,13.70
2017-10-11T00:52:03.070Z,13.70
2017-10-11T00:54:31.961Z,13.70
2017-10-11T00:57:00.134Z,13.70
2017-10-11T00:59:28.242Z,13.70
2017-10-11T01:01:56.321Z,13.80
2017-10-11T01:04:24.423Z,13.80
2017-10-11T01:06:52.523Z,13.70
2017-10-11T01:09:20.641Z,13.70
2017-10-11T01:11:48.727Z,13.70
2017-10-11T01:14:16.812Z,13.70
2017-10-11T01:16:44.915Z,13.60
2017-10-11T01:19:13.030Z,13.60
2017-10-11T01:21:41.195Z,13.60
2017-10-11T01:24:09.284Z,13.60
2017-10-11T01:26:37.370Z,13.60
2017-10-11T01:29:05.472Z,13.50
2017-10-11T01:31:33.574Z,13.50
2017-10-11T01:34:01.672Z,13.50
2017-10-11T01:36:30.563Z,13.40
2017-10-11T01:38:58.666Z,13.40
2017-10-11T01:41:26.744Z,13.40
2017-10-11T01:43:54.833Z,13.40
2017-10-11T01:46:22.922Z,13.40
2017-10-11T01:48:51.041Z,13.40
2017-10-11T01:51:19.102Z,13.40
2017-10-11T01:53:47.214Z,13.50
2017-10-11T01:56:15.291Z,13.50
2017-10-11T01:58:43.395Z,13.40
2017-10-11T02:01:11.594Z,13.50
2017-10-11T02:03:39.673Z,13.50
2017-10-11T02:06:07.764Z,13.40
2017-10-11T02:08:35.850Z,13.40
2017-10-11T02:11:04.705Z,13.50
2017-10-11T02:13:33.583Z,13.50
2017-10-11T02:16:02.450Z,13.50
2017-10-11T02:18:30.536Z,13.50
2017-10-11T02:20:58.599Z,13.50
2017-10-11T02:23:26.848Z,13.50
2017-10-11T02:25:55.669Z,13.50
2017-10-11T02:28:23.763Z,13.50
2017-10-11T02:30:52.665Z,13.50
2017-10-11T02:33:20.787Z,13.50
2017-10-11T02:35:48.836Z,13.50
2017-10-11T02:38:16.915Z,13.50
2017-10-11T02:40:45.772Z,13.50
2017-10-11T02:43:14.674Z,13.50
2017-10-11T02:45:42.779Z,13.50
2017-10-11T02:48:10.876Z,13.50
2017-10-11T02:50:38.962Z,13.50
2017-10-11T02:53:07.053Z,13.50
2017-10-11T02:55:35.170Z,13.50
2017-10-11T02:58:03.257Z,13.50
2017-10-11T03:00:31.497Z,13.50
2017-10-11T03:02:59.580Z,13.50
2017-10-11T03:05:27.783Z,13.50
2017-10-11T03:07:55.867Z,13.50
2017-10-11T03:10:23.961Z,13.40
2017-10-11T03:12:52.064Z,13.50
2017-10-11T03:15:20.148Z,13.50
2017-10-11T03:17:48.257Z,13.50
2017-10-11T03:20:17.121Z,13.50
2017-10-11T03:22:45.291Z,13.40
2017-10-11T03:25:13.379Z,13.50
2017-10-11T03:27:41.499Z,13.50
2017-10-11T03:30:09.602Z,13.50
2017-10-11T03:32:37.695Z,13.50
2017-10-11T03:35:05.767Z,13.40
2017-10-11T03:37:34.642Z,13.50
2017-10-11T03:40:03.522Z,13.50
2017-10-11T03:42:31.630Z,13.40
2017-10-11T03:44:59.741Z,13.50
2017-10-11T03:47:27.828Z,13.50
2017-10-11T03:49:55.936Z,13.50
2017-10-11T03:52:24.023Z,13.60
2017-10-11T03:54:52.149Z,13.60
2017-10-11T03:57:20.936Z,13.60
2017-10-11T03:59:49.062Z,13.50
2017-10-11T04:02:17.150Z,13.60
2017-10-11T04:04:45.276Z,13.60
2017-10-11T04:07:13.528Z,13.60
2017-10-11T04:09:41.633Z,13.50
2017-10-11T04:12:09.726Z,13.50
2017-10-11T04:14:37.830Z,13.50
2017-10-11T04:17:05.951Z,13.60
2017-10-11T04:19:34.093Z,13.60
2017-10-11T04:22:02.170Z,13.60
2017-10-11T04:24:30.269Z,13.60
2017-10-11T04:26:58.376Z,13.50
2017-10-11T04:29:36.381Z,13.60
2017-10-11T04:32:04.501Z,13.50
2017-10-11T04:34:33.389Z,13.60
2017-10-11T04:37:01.486Z,13.50
2017-10-11T04:39:29.593Z,13.60
2017-10-11T04:41:57.682Z,13.60
2017-10-11T04:44:25.799Z,13.60
2017-10-11T04:46:55.304Z,13.60
2017-10-11T04:49:24.297Z,13.60
2017-10-11T04:51:52.906Z,13.50
2017-10-11T04:54:21.010Z,13.60
2017-10-11T04:56:49.126Z,13.60
2017-10-11T04:59:18.045Z,13.60
2017-10-11T05:01:47.881Z,13.60
2017-10-11T05:04:15.970Z,13.60
2017-10-11T05:06:44.833Z,13.60
2017-10-11T05:09:12.914Z,13.50
2017-10-11T05:11:41.021Z,13.60
2017-10-11T05:14:09.152Z,13.60
2017-10-11T05:16:38.460Z,13.60
2017-10-11T05:19:06.568Z,13.60
2017-10-11T05:21:35.450Z,13.60
2017-10-11T05:24:03.562Z,13.60
2017-10-11T05:26:31.737Z,13.60
2017-10-11T05:28:59.849Z,13.70
2017-10-11T05:31:27.967Z,13.70
2017-10-11T05:33:56.108Z,13.70
2017-10-11T05:36:24.544Z,13.70
2017-10-11T05:38:52.903Z,13.70
2017-10-11T05:41:21.031Z,13.70
2017-10-11T05:43:50.276Z,13.70
2017-10-11T05:46:18.371Z,13.70
2017-10-11T05:48:47.699Z,13.70
2017-10-11T05:51:16.716Z,13.70
2017-10-11T05:53:45.064Z,13.70
2017-10-11T05:56:13.146Z,13.70
2017-10-11T05:58:41.998Z,13.70
2017-10-11T06:01:10.102Z,13.70
2017-10-11T06:03:38.207Z,13.70
2017-10-11T06:06:07.810Z,13.70
2017-10-11T06:08:35.915Z,13.70
2017-10-11T06:11:04.027Z,13.70
2017-10-11T06:13:32.121Z,13.80
2017-10-11T06:16:02.653Z,13.70
2017-10-11T06:18:30.768Z,13.70
2017-10-11T06:20:59.046Z,13.70
2017-10-11T06:23:27.147Z,13.70
2017-10-11T06:25:55.273Z,13.80
2017-10-11T06:28:23.359Z,13.80
2017-10-11T06:30:51.446Z,13.80
2017-10-11T06:33:19.540Z,13.70
2017-10-11T06:35:47.645Z,13.80
2017-10-11T06:38:15.732Z,13.80
2017-10-11T06:40:43.796Z,13.80
2017-10-11T06:43:11.912Z,13.80
2017-10-11T06:45:40.006Z,13.80
2017-10-11T06:48:08.120Z,13.80
2017-10-11T06:50:36.211Z,13.70
2017-10-11T06:53:04.795Z,13.80
2017-10-11T06:55:32.919Z,13.80
2017-10-11T06:58:01.046Z,13.80
2017-10-11T07:00:29.256Z,13.80
2017-10-11T07:02:57.364Z,13.70
2017-10-11T07:05:25.515Z,13.80
2017-10-11T07:07:54.061Z,13.80
2017-10-11T07:10:22.295Z,13.80
2017-10-11T07:12:50.376Z,13.80
2017-10-11T07:15:18.492Z,13.80
2017-10-11T07:17:46.675Z,13.80
2017-10-11T07:20:14.867Z,13.80
2017-10-11T07:22:42.975Z,13.70
2017-10-11T07:25:11.114Z,13.70
2017-10-11T07:27:40.008Z,13.80
2017-10-11T07:30:08.113Z,13.70
2017-10-11T07:32:36.262Z,13.80
2017-10-11T07:35:05.132Z,13.90
2017-10-11T07:37:33.223Z,13.80
2017-10-11T07:40:02.099Z,13.90
2017-10-11T07:42:30.230Z,13.90
2017-10-11T07:44:58.311Z,14.00
2017-10-11T07:47:27.181Z,14.20
2017-10-11T07:49:55.288Z,14.20
2017-10-11T07:52:24.909Z,14.50
2017-10-11T07:54:53.749Z,14.50
2017-10-11T07:57:21.857Z,14.70
2017-10-11T07:59:49.955Z,14.80
2017-10-11T08:02:19.579Z,14.80
2017-10-11T08:04:48.457Z,14.70
2017-10-11T08:07:16.573Z,14.70
2017-10-11T08:09:45.438Z,14.60
2017-10-11T08:12:13.568Z,14.60
2017-10-11T08:14:41.672Z,14.50
2017-10-11T08:17:10.537Z,14.50
2017-10-11T08:19:38.643Z,14.50
2017-10-11T08:22:06.734Z,14.50
2017-10-11T08:24:35.582Z,14.40
2017-10-11T08:27:03.668Z,14.40
2017-10-11T08:29:31.785Z,14.50
2017-10-11T08:31:59.876Z,14.40
2017-10-11T08:34:28.011Z,14.40
2017-10-11T08:36:56.125Z,14.50
2017-10-11T08:39:24.212Z,14.30
2017-10-11T08:41:53.085Z,14.20
2017-10-11T08:44:21.313Z,14.20
2017-10-11T08:46:49.443Z,14.20
2017-10-11T08:49:17.602Z,14.20
2017-10-11T08:51:45.745Z,14.20
2017-10-11T08:54:15.091Z,14.20
2017-10-11T08:56:44.762Z,14.10
2017-10-11T08:59:12.875Z,14.10
2017-10-11T09:01:41.006Z,14.20
2017-10-11T09:04:09.128Z,14.30
2017-10-11T09:06:37.257Z,14.30
2017-10-11T09:09:05.376Z,14.20
2017-10-11T09:11:34.248Z,14.20
2017-10-11T09:14:02.351Z,14.20
2017-10-11T09:16:30.438Z,14.30
2017-10-11T09:18:58.535Z,14.50
2017-10-11T09:21:26.649Z,14.50
2017-10-11T09:23:54.767Z,14.50
2017-10-11T09:26:22.858Z,14.80
2017-10-11T09:28:51.730Z,16.10
2017-10-11T09:31:19.859Z,16.10
2017-10-11T09:33:47.983Z,16.80
2017-10-11T09:36:16.123Z,16.50
2017-10-11T09:38:44.231Z,16.10
2017-10-11T09:41:12.333Z,16.20
2017-10-11T09:43:40.453Z,16.50
2017-10-11T09:46:08.573Z,16.60
2017-10-11T09:48:36.666Z,16.80
2017-10-11T09:51:05.654Z,17.50
2017-10-11T09:53:33.760Z,17.50
2017-10-11T09:56:01.832Z,17.90
2017-10-11T09:58:29.935Z,17.90
2017-10-11T10:00:58.184Z,18.30
2017-10-11T10:03:26.258Z,18.80
2017-10-11T10:05:54.363Z,18.70
2017-10-11T10:08:22.467Z,19.50
2017-10-11T10:10:50.596Z,19.80
2017-10-11T10:13:18.704Z,19.80
2017-10-11T10:15:46.832Z,20.40
2017-10-11T10:18:15.742Z,21.00
2017-10-11T10:20:43.835Z,21.00
2017-10-11T10:23:11.957Z,20.90
2017-10-11T10:25:40.054Z,20.90
2017-10-11T10:28:08.175Z,20.40
2017-10-11T10:30:36.260Z,20.00
2017-10-11T10:33:04.382Z,19.20
2017-10-11T10:35:33.234Z,18.50
2017-10-11T10:38:01.363Z,18.40
2017-10-11T10:40:29.538Z,18.20
2017-10-11T10:42:58.436Z,17.80
2017-10-11T10:45:26.592Z,17.70
2017-10-11T10:47:54.686Z,17.60
2017-10-11T10:50:22.805Z,17.40
2017-10-11T10:52:50.915Z,17.10
2017-10-11T10:55:19.004Z,17.10
2017-10-11T10:57:47.109Z,16.90
2017-10-11T11:00:15.266Z,16.90
2017-10-11T11:02:43.354Z,16.80
2017-10-11T11:05:11.549Z,16.60
2017-10-11T11:07:40.428Z,16.40
2017-10-11T11:10:09.296Z,16.30
2017-10-11T11:12:37.385Z,16.30
2017-10-11T11:15:06.228Z,16.10
2017-10-11T11:17:34.343Z,16.10
2017-10-11T11:20:02.492Z,16.00
2017-10-11T11:22:30.584Z,15.90
2017-10-11T11:24:58.716Z,15.90
2017-10-11T11:27:26.945Z,15.70
2017-10-11T11:29:55.122Z,15.60
2017-10-11T11:32:23.221Z,15.70
2017-10-11T11:34:52.096Z,15.50
2017-10-11T11:37:20.211Z,15.50
2017-10-11T11:39:48.319Z,15.40
2017-10-11T11:42:16.406Z,15.40
2017-10-11T11:44:45.278Z,15.30
2017-10-11T11:49:47.820Z,15.20
2017-10-11T11:52:15.997Z,15.20
2017-10-11T11:54:44.075Z,15.20
2017-10-11T11:57:12.321Z,15.20
2017-10-11T11:59:40.381Z,15.20
2017-10-11T12:02:09.086Z,15.10
2017-10-11T12:04:37.189Z,15.10
2017-10-11T12:07:05.349Z,15.10
2017-10-11T12:09:34.258Z,15.10
2017-10-11T12:12:03.154Z,15.10
2017-10-11T12:14:31.251Z,15.00
2017-10-11T12:16:59.326Z,15.00
2017-10-11T12:19:27.457Z,14.80
2017-10-11T12:21:55.583Z,14.90
2017-10-11T12:24:23.728Z,14.90
2017-10-11T12:26:51.866Z,15.00
2017-10-11T12:29:19.957Z,15.00
2017-10-11T12:31:48.133Z,15.00
2017-10-11T12:34:16.231Z,14.90
2017-10-11T12:36:44.362Z,14.90
2017-10-11T12:39:12.449Z,14.90
2017-10-11T12:41:40.614Z,14.90
2017-10-11T12:44:09.419Z,14.90
2017-10-11T12:46:37.541Z,14.90
2017-10-11T12:49:05.728Z,14.90
2017-10-11T12:51:35.335Z,14.80
2017-10-11T12:54:04.199Z,14.90
2017-10-11T12:56:32.356Z,14.80
2017-10-11T12:59:00.529Z,14.80
2017-10-11T13:01:28.663Z,14.80
2017-10-11T13:03:57.576Z,14.80
2017-10-11T13:06:25.683Z,14.70
2017-10-11T13:08:53.776Z,14.80
2017-10-11T13:11:22.672Z,14.70
2017-10-11T13:13:51.536Z,14.70
2017-10-11T13:16:20.441Z,14.70
2017-10-11T13:18:49.183Z,14.60
2017-10-11T13:21:18.196Z,14.70
2017-10-11T13:23:46.331Z,14.70
2017-10-11T13:26:14.426Z,14.70
2017-10-11T13:28:43.278Z,14.70
2017-10-11T13:31:11.393Z,14.60
2017-10-11T13:33:39.496Z,14.70
2017-10-11T13:36:07.576Z,14.70
2017-10-11T13:38:35.748Z,14.70
2017-10-11T13:41:03.849Z,14.70
2017-10-11T13:43:32.739Z,14.80
2017-10-11T13:46:00.950Z,14.70
2017-10-11T13:48:29.835Z,14.90
2017-10-11T13:50:57.931Z,14.90
2017-10-11T13:53:26.067Z,14.80
2017-10-11T13:55:54.185Z,14.90
2017-10-11T13:58:22.326Z,14.90
2017-10-11T14:00:50.468Z,14.90
2017-10-11T14:03:19.344Z,14.90
2017-10-11T14:05:48.212Z,14.90
2017-10-11T14:08:16.320Z,14.90
2017-10-11T14:10:44.496Z,14.90
2017-10-11T14:13:12.610Z,14.80
2017-10-11T14:15:40.761Z,14.90
2017-10-11T14:18:08.881Z,14.90
2017-10-11T14:20:37.771Z,14.90
2017-10-11T14:23:05.891Z,14.90
2017-10-11T14:25:34.009Z,15.00
2017-10-11T14:28:02.172Z,15.00
2017-10-11T14:30:30.301Z,15.00
2017-10-11T14:32:58.404Z,15.00
2017-10-11T14:35:27.312Z,15.00
2017-10-11T14:37:55.446Z,15.00
2017-10-11T14:40:23.549Z,15.00
2017-10-11T14:42:51.713Z,15.10
2017-10-11T14:45:19.837Z,15.00
2017-10-11T14:47:47.940Z,15.10
2017-10-11T14:50:16.790Z,15.20
2017-10-11T14:52:44.918Z,15.10
2017-10-11T14:55:13.062Z,15.20
2017-10-11T14:57:41.219Z,15.20
2017-10-11T15:00:09.350Z,15.20
2017-10-11T15:02:37.478Z,15.20
2017-10-11T15:05:06.590Z,15.20
2017-10-11T15:07:34.697Z,15.20
2017-10-11T15:10:02.803Z,15.30
2017-10-11T15:12:31.665Z,15.30
2017-10-11T15:15:00.298Z,15.30
2017-10-11T15:17:28.437Z,15.20
2017-10-11T15:19:58.103Z,15.20
2017-10-11T15:22:26.414Z,15.20
2017-10-11T15:24:54.526Z,15.30
2017-10-11T16:43:23.358Z,15.20
2017-10-11T16:45:51.528Z,15.10
2017-10-11T16:48:19.628Z,15.00
2017-10-11T16:50:47.853Z,15.00
2017-10-11T16:53:16.455Z,15.00
2017-10-11T16:55:44.549Z,15.00
2017-10-11T16:58:12.648Z,15.00
2017-10-11T17:00:41.531Z,15.00
2017-10-11T17:03:09.750Z,15.00
2017-10-11T17:05:38.533Z,15.00
2017-10-11T17:08:07.494Z,15.00
2017-10-11T17:10:37.098Z,14.90
2017-10-11T17:13:05.226Z,14.90
2017-10-11T17:15:33.321Z,15.00
2017-10-11T17:18:01.405Z,15.00
2017-10-11T17:20:29.552Z,14.90
2017-10-11T17:22:57.674Z,15.00
2017-10-11T17:25:25.750Z,15.00
2017-10-11T17:27:54.721Z,15.00
2017-10-11T17:30:22.842Z,15.00
2017-10-11T17:32:51.032Z,15.00
2017-10-11T17:35:19.226Z,15.00
2017-10-11T17:37:47.314Z,15.00
2017-10-11T17:40:16.201Z,15.00
2017-10-11T17:42:44.295Z,14.90
2017-10-11T17:45:12.464Z,15.00
2017-10-11T17:47:40.643Z,15.00
2017-10-11T17:50:08.781Z,15.00
2017-10-11T17:52:36.919Z,15.00
2017-10-11T17:55:05.798Z,14.90
2017-10-11T17:57:33.935Z,14.90
2017-10-11T18:00:02.014Z,14.90
2017-10-11T18:02:30.148Z,14.90
2017-10-11T18:05:00.010Z,14.90
2017-10-11T18:07:28.160Z,14.90
2017-10-11T18:09:57.151Z,14.90
2017-10-11T18:12:25.330Z,14.90
2017-10-11T18:14:53.799Z,14.90
2017-10-11T18:17:22.659Z,14.80
2017-10-11T18:19:50.783Z,14.80
2017-10-11T18:22:18.938Z,14.90
2017-10-11T18:24:47.071Z,14.90
2017-10-11T18:27:15.185Z,14.90
2017-10-11T18:29:43.278Z,14.80
2017-10-11T18:32:11.463Z,14.80
2017-10-11T18:34:39.673Z,14.80
2017-10-11T18:37:07.811Z,14.80
2017-10-11T18:39:36.651Z,14.80
2017-10-11T18:42:04.773Z,14.70
2017-10-11T18:44:32.862Z,14.80
2017-10-11T18:47:01.020Z,14.80
2017-10-11T18:49:29.133Z,14.80
2017-10-11T18:51:58.575Z,14.80
2017-10-11T18:54:26.699Z,14.70
2017-10-11T18:56:54.843Z,14.80
2017-10-11T18:59:22.932Z,14.70
2017-10-11T19:01:51.841Z,14.70
2017-10-11T19:04:20.718Z,14.70
2017-10-11T19:06:48.855Z,14.70
2017-10-11T19:09:17.070Z,14.80
2017-10-11T19:11:45.956Z,14.70
2017-10-11T19:14:14.085Z,14.70
2017-10-11T19:16:42.204Z,14.70
2017-10-11T19:19:10.635Z,14.70
2017-10-11T19:21:38.749Z,14.70
2017-10-11T19:24:06.845Z,14.70
2017-10-11T19:26:37.989Z,14.70
2017-10-11T19:29:06.201Z,14.70
2017-10-11T19:31:34.316Z,14.70
2017-10-11T19:34:03.208Z,14.70
2017-10-11T19:36:31.372Z,14.60
2017-10-11T19:38:59.463Z,14.70
2017-10-11T19:41:27.568Z,14.60
2017-10-11T19:43:55.718Z,14.60
2017-10-11T19:46:23.820Z,14.60
2017-10-11T19:48:51.914Z,14.60
2017-10-11T19:51:20.011Z,14.70
2017-10-11T19:53:48.203Z,14.70
2017-10-11T19:56:17.179Z,14.60
2017-10-11T19:58:45.286Z,14.60
2017-10-11T20:01:13.404Z,14.60
2017-10-11T20:03:41.515Z,14.60
2017-10-11T20:06:09.621Z,14.60
2017-10-11T20:08:38.220Z,14.60
2017-10-11T20:11:07.093Z,14.60
2017-10-11T20:13:36.813Z,14.50
2017-10-11T20:16:04.923Z,14.50
2017-10-11T20:18:33.045Z,14.60
2017-10-11T20:21:01.117Z,14.50
2017-10-11T20:23:29.983Z,14.50
2017-10-11T20:25:58.084Z,14.50
2017-10-11T20:28:26.176Z,14.50
2017-10-11T20:30:54.251Z,14.50
2017-10-11T20:33:22.347Z,14.50
2017-10-11T20:35:50.441Z,14.60
2017-10-11T20:38:19.312Z,14.50
2017-10-11T20:40:47.437Z,14.50
2017-10-11T20:45:50.113Z,14.50
2017-10-11T20:48:18.204Z,14.40
2017-10-11T20:50:46.326Z,14.50
2017-10-11T20:53:14.524Z,14.40
2017-10-11T20:55:42.646Z,14.50
2017-10-11T20:58:10.719Z,14.40
2017-10-11T21:00:38.832Z,14.40
2017-10-11T21:03:06.894Z,14.40
2017-10-11T21:05:35.014Z,14.40
2017-10-11T21:08:03.106Z,14.50
2017-10-11T21:10:31.567Z,14.40
2017-10-11T21:13:01.523Z,14.40
2017-10-11T21:15:30.390Z,14.40
2017-10-11T21:17:58.503Z,14.40
2017-10-11T21:20:27.368Z,14.40
2017-10-11T21:22:55.511Z,14.40
2017-10-11T21:25:23.601Z,14.40
2017-10-11T21:27:51.738Z,14.30
2017-10-11T21:30:19.843Z,14.40
2017-10-11T21:32:47.961Z,14.40
2017-10-11T21:35:16.073Z,14.40
2017-10-11T21:37:44.189Z,14.30
2017-10-11T21:40:12.380Z,14.40
2017-10-11T21:42:40.497Z,14.40
2017-10-11T21:45:08.632Z,14.40
2017-10-11T21:47:36.736Z,14.30
2017-10-11T21:50:04.887Z,14.40
2017-10-11T21:52:33.770Z,14.40
2017-10-11T21:55:01.868Z,14.40
2017-10-11T21:57:29.954Z,14.40
2017-10-11T21:59:58.028Z,14.40
2017-10-11T22:02:27.028Z,14.40
2017-10-11T22:04:55.138Z,14.40
2017-10-11T22:07:23.248Z,14.40
2017-10-11T22:09:51.471Z,14.40
2017-10-11T22:12:19.613Z,14.40
2017-10-11T22:14:47.696Z,14.30
2017-10-11T22:17:15.830Z,14.30
2017-10-11T22:19:44.768Z,14.30
2017-10-11T22:22:14.435Z,14.30
2017-10-11T22:24:44.042Z,14.30
2017-10-11T22:27:12.185Z,14.30
2017-10-11T22:29:40.384Z,14.30
2017-10-11T22:32:08.992Z,14.30
2017-10-11T22:34:37.895Z,14.30
2017-10-11T22:37:06.081Z,14.20
2017-10-11T22:39:34.223Z,14.40
2017-10-11T22:42:02.366Z,14.20
2017-10-11T22:44:30.476Z,14.30
2017-10-11T22:46:58.596Z,14.30
2017-10-11T22:49:26.745Z,14.30
2017-10-11T22:51:54.859Z,14.20
2017-10-11T22:54:22.964Z,14.30
2017-10-11T22:56:51.096Z,14.30
2017-10-11T22:59:20.011Z,14.20
2017-10-11T23:01:48.097Z,14.20
2017-10-11T23:04:16.219Z,14.20
2017-10-11T23:06:45.079Z,14.20
2017-10-11T23:09:13.184Z,14.20
2017-10-11T23:11:41.268Z,14.20
2017-10-11T23:14:09.380Z,14.20
2017-10-11T23:16:37.517Z,14.10
2017-10-11T23:19:05.649Z,14.10
2017-10-11T23:21:33.773Z,14.20
2017-10-11T23:24:01.837Z,14.20
2017-10-11T23:26:29.936Z,14.10
2017-10-11T23:28:58.037Z,14.10
2017-10-11T23:31:26.147Z,14.20
2017-10-11T23:33:54.222Z,14.10
2017-10-11T23:36:22.378Z,14.10
2017-10-11T23:38:50.501Z,14.20
2017-10-11T23:41:18.591Z,14.20
2017-10-11T23:43:46.700Z,14.20
2017-10-11T23:46:14.775Z,14.10
2017-10-11T23:48:42.890Z,14.10
2017-10-11T23:51:11.036Z,14.10
2017-10-11T23:53:39.897Z,14.10
2017-10-11T23:56:08.002Z,14.00
2017-10-11T23:58:36.894Z,14.00
